Time;durP1;ratioP1;P1;durP2;ratioP2;P2;SDS_P1;SDS_P2;PMS_P1;PMS_P2;Temp;Humidity;BMP_temperature;BMP_pressure;BME280_temperature;BME280_humidity;BME280_pressure;Samples;Min_cycle;Max_cycle;Signal;HPM_P1;HPM_P2
2022/03/31 00:03:11;;;;;;;5.33;3.50;;;;;;;;;;21129025;27;20232;-82
2022/03/31 00:13:18;;;;;;;5.33;3.73;;;;;;;;;;21165008;27;20212;-82
2022/03/31 00:23:21;;;;;;;4.43;2.80;;;;;;;;;;21109962;27;20288;-82
2022/03/31 00:33:25;;;;;;;4.60;2.87;;;;;;;;;;21110259;27;20204;-82
2022/03/31 00:43:27;;;;;;;5.30;3.10;;;;;;;;;;21107592;28;20216;-80
2022/03/31 00:53:28;;;;;;;6.00;3.07;;;;;;;;;;21124749;28;20264;-82
2022/03/31 01:03:31;;;;;;;6.23;3.30;;;;;;;;;;21129703;27;20227;-82
2022/03/31 01:13:33;;;;;;;7.93;4.03;;;;;;;;;;21141125;27;20204;-82
2022/03/31 01:23:35;;;;;;;5.70;3.67;;;;;;;;;;21163229;27;20265;-81
2022/03/31 01:33:37;;;;;;;5.57;3.50;;;;;;;;;;21122910;28;20272;-82
2022/03/31 01:43:38;;;;;;;8.30;3.80;;;;;;;;;;21092297;28;20224;-82
2022/03/31 01:53:40;;;;;;;3.90;2.77;;;;;;;;;;21141382;28;20244;-82
2022/03/31 02:03:42;;;;;;;6.87;3.10;;;;;;;;;;21102225;27;20208;-82
2022/03/31 02:13:44;;;;;;;4.43;3.13;;;;;;;;;;21135889;27;20577;-81
2022/03/31 02:23:47;;;;;;;5.07;2.83;;;;;;;;;;21135055;27;20273;-81
2022/03/31 02:33:48;;;;;;;3.73;2.70;;;;;;;;;;21151350;28;20705;-83
2022/03/31 02:43:51;;;;;;;5.70;3.60;;;;;;;;;;21115584;28;20231;-82
2022/03/31 03:04:13;;;;;;;6.37;3.37;;;;;;;;;;21118987;27;20564;-81
2022/03/31 03:14:14;;;;;;;6.63;3.93;;;;;;;;;;21161535;27;20256;-82
2022/03/31 03:24:16;;;;;;;6.30;3.90;;;;;;;;;;21122223;28;20200;-82
2022/03/31 03:34:18;;;;;;;6.70;3.73;;;;;;;;;;21113328;28;20216;-80
2022/03/31 03:44:20;;;;;;;5.23;3.70;;;;;;;;;;21144186;27;20227;-80
2022/03/31 03:54:22;;;;;;;6.37;3.80;;;;;;;;;;21142816;27;20781;-81
2022/03/31 04:04:26;;;;;;;4.90;3.47;;;8.30;99.90;;;;;;21158889;27;20224;-81
2022/03/31 04:14:27;;;;;;;5.53;3.70;;;;;;;;;;21086756;28;20220;-80
2022/03/31 04:24:29;;;;;;;5.67;3.47;;;;;;;;;;21038269;28;20216;-80
2022/03/31 04:34:31;;;;;;;5.80;3.73;;;;;;;;;;21047398;28;20704;-80
2022/03/31 04:44:32;;;;;;;3.60;2.60;;;;;;;;;;21104846;27;20252;-81
2022/03/31 04:54:34;;;;;;;3.73;2.80;;;;;;;;;;21060178;28;20243;-81
2022/03/31 05:04:36;;;;;;;4.67;2.47;;;;;;;;;;21115830;27;20273;-80
2022/03/31 05:14:38;;;;;;;4.13;2.63;;;;;;;;;;21128588;27;20272;-81
2022/03/31 05:24:39;;;;;;;3.80;2.70;;;;;;;;;;21049447;28;20277;-80
2022/03/31 05:34:42;;;;;;;3.33;2.33;;;;;;;;;;21112465;28;20243;-81
2022/03/31 05:44:44;;;;;;;3.50;2.60;;;;;;;;;;21135303;28;20277;-82
2022/03/31 05:54:46;;;;;;;4.70;2.70;;;;;;;;;;21094573;28;20256;-81
2022/03/31 06:04:47;;;;;;;4.83;2.33;;;;;;;;;;21083930;28;20258;-81
2022/03/31 06:14:49;;;;;;;4.20;2.80;;;;;;;;;;21083211;28;20228;-81
2022/03/31 06:24:51;;;;;;;3.40;2.20;;;;;;;;;;21047982;28;20246;-81
2022/03/31 06:34:53;;;;;;;4.53;2.70;;;;;;;;;;21106046;28;20601;-80
2022/03/31 06:44:55;;;;;;;4.47;2.23;;;;;;;;;;21147924;28;20636;-80
2022/03/31 06:54:56;;;;;;;2.67;1.80;;;;;;;;;;21161281;28;20220;-81
2022/03/31 07:04:58;;;;;;;5.77;2.73;;;;;;;;;;21117288;28;20281;-81
2022/03/31 07:15:00;;;;;;;2.37;1.67;;;8.10;99.90;;;;;;21149444;28;20232;-81
2022/03/31 07:25:01;;;;;;;3.70;2.23;;;;;;;;;;21031444;28;20770;-80
2022/03/31 07:35:03;;;;;;;3.67;2.10;;;;;;;;;;21030995;28;20228;-81
2022/03/31 07:45:05;;;;;;;3.90;2.53;;;;;;;;;;21123036;28;20756;-80
2022/03/31 07:55:07;;;;;;;5.13;3.13;;;;;;;;;;21129719;28;20253;-80
2022/03/31 08:05:11;;;;;;;4.33;3.40;;;;;;;;;;21111956;28;20215;-79
2022/03/31 08:15:15;;;;;;;6.77;4.40;;;8.20;99.90;;;;;;21145920;28;20227;-82
2022/03/31 08:25:17;;;;;;;5.30;3.27;;;;;;;;;;21145208;28;20208;-80
2022/03/31 08:35:19;;;;;;;5.43;3.10;;;;;;;;;;21162832;28;20285;-79
2022/03/31 08:45:21;;;;;;;5.80;3.17;;;;;;;;;;21127140;28;20720;-81
2022/03/31 08:55:23;;;;;;;5.93;3.67;;;;;;;;;;21115688;28;20268;-81
2022/03/31 09:05:24;;;;;;;4.33;2.97;;;;;;;;;;21137663;28;20208;-81
2022/03/31 09:15:26;;;;;;;4.30;3.20;;;;;;;;;;21162550;28;20708;-80
2022/03/31 09:25:29;;;;;;;9.53;4.47;;;9.20;99.90;;;;;;21161208;28;20265;-80
2022/03/31 09:35:30;;;;;;;5.17;3.37;;;;;;;;;;21184960;28;20244;-80
2022/03/31 09:45:39;;;;;;;9.50;4.00;;;;;;;;;;21146442;28;20272;-79
2022/03/31 09:55:45;;;;;;;6.13;4.00;;;9.40;99.90;;;;;;21147137;28;20288;-80
2022/03/31 10:05:47;;;;;;;6.47;4.30;;;;;;;;;;21106939;28;20204;-80
2022/03/31 10:15:54;;;;;;;6.30;4.20;;;;;;;;;;21164314;28;20231;-78
2022/03/31 10:25:56;;;;;;;8.33;3.80;;;;;;;;;;21155824;28;20249;-79
2022/03/31 10:36:18;;;;;;;5.70;3.83;;;;;;;;;;21155484;28;20224;-79
2022/03/31 10:46:20;;;;;;;5.13;3.57;;;;;;;;;;21110000;27;20273;-79
2022/03/31 10:56:27;;;;;;;5.97;4.10;;;9.40;99.90;;;;;;21136542;28;20231;-79
2022/03/31 11:06:30;;;;;;;4.77;3.03;;;9.40;99.90;;;;;;21151309;28;20214;-80
2022/03/31 11:16:38;;;;;;;5.43;2.97;;;;;;;;;;21150442;28;20228;-79
2022/03/31 11:26:44;;;;;;;5.30;2.97;;;;;;;;;;21149553;28;20225;-80
2022/03/31 11:36:46;;;;;;;4.33;2.87;;;;;;;;;;21167195;28;20778;-80
2022/03/31 11:46:49;;;;;;;4.97;2.90;;;9.60;99.90;;;;;;21122459;28;20212;-80
2022/03/31 11:57:08;;;;;;;5.33;3.00;;;9.50;99.90;;;;;;21147540;28;20235;-82
2022/03/31 12:07:11;;;;;;;4.60;2.67;;;;;;;;;;21164680;28;20237;-82
2022/03/31 12:17:13;;;;;;;4.50;3.30;;;;;;;;;;21131166;28;20231;-79
2022/03/31 12:27:19;;;;;;;5.27;2.97;;;;;;;;;;21171464;28;20196;-80
2022/03/31 12:37:28;;;;;;;5.33;3.37;;;;;;;;;;21113033;28;20600;-80
2022/03/31 12:47:30;;;;;;;5.87;3.23;;;;;;;;;;21147782;28;20220;-79
2022/03/31 12:57:32;;;;;;;7.97;3.53;;;;;;;;;;21142229;28;20232;-80
2022/03/31 13:07:35;;;;;;;5.87;3.43;;;;;;;;;;21121668;28;20207;-81
2022/03/31 13:17:37;;;;;;;4.20;2.90;;;;;;;;;;21127268;28;20245;-80
2022/03/31 13:27:42;;;;;;;4.97;3.00;;;;;;;;;;21131112;28;20216;-82
2022/03/31 13:37:49;;;;;;;4.03;2.93;;;;;;;;;;21126959;28;20573;-81
2022/03/31 13:47:51;;;;;;;4.20;2.83;;;;;;;;;;21125726;27;20208;-80
2022/03/31 14:08:14;;;;;;;5.60;3.47;;;;;;;;;;21173460;27;20281;-81
2022/03/31 14:18:16;;;;;;;4.67;2.93;;;;;;;;;;21122355;27;20208;-80
2022/03/31 14:28:18;;;;;;;4.70;3.00;;;;;;;;;;21160457;27;20224;-82
2022/03/31 14:38:25;;;;;;;5.17;3.10;;;;;;;;;;21145481;28;20250;-82
2022/03/31 14:48:28;;;;;;;5.70;3.33;;;;;;;;;;21181879;27;20219;-82
2022/03/31 14:58:29;;;;;;;5.27;2.93;;;;;;;;;;21144818;28;20192;-82
2022/03/31 15:08:31;;;;;;;5.70;2.83;;;;;;;;;;21150089;27;20262;-82
2022/03/31 15:18:35;;;;;;;7.13;2.53;;;;;;;;;;21136014;28;20223;-81
2022/03/31 15:28:37;;;;;;;4.80;2.60;;;9.40;99.90;;;;;;21183553;27;20281;-80
2022/03/31 15:38:39;;;;;;;3.97;2.60;;;;;;;;;;21152393;28;20223;-81
2022/03/31 15:48:42;;;;;;;4.77;2.87;;;9.30;99.90;;;;;;21144476;28;20249;-81
2022/03/31 15:58:47;;;;;;;2.97;1.70;;;;;;;;;;21081832;28;20224;-80
2022/03/31 16:08:48;;;;;;;3.97;2.47;;;9.20;99.90;;;;;;21126771;27;20216;-80
2022/03/31 16:18:50;;;;;;;6.10;3.30;;;;;;;;;;21122609;28;20269;-80
2022/03/31 16:28:52;;;;;;;3.97;2.50;;;;;;;;;;21162954;27;20701;-81
2022/03/31 16:38:54;;;;;;;4.73;2.80;;;;;;;;;;21169904;28;20224;-81
2022/03/31 16:48:57;;;;;;;5.80;3.33;;;;;;;;;;21113277;28;20216;-81
2022/03/31 16:58:58;;;;;;;4.53;2.73;;;;;;;;;;21117107;27;20253;-81
2022/03/31 17:09:00;;;;;;;5.10;2.83;;;;;;;;;;21141647;28;20212;-80
2022/03/31 17:19:02;;;;;;;5.37;2.80;;;;;;;;;;21116821;28;20277;-80
2022/03/31 17:29:07;;;;;;;4.33;2.70;;;;;;;;;;21157694;27;20647;-82
2022/03/31 17:39:09;;;;;;;5.90;3.03;;;;;;;;;;21083327;28;20228;-81
2022/03/31 17:49:12;;;;;;;4.37;2.87;;;;;;;;;;21135119;27;20223;-80
2022/03/31 17:59:14;;;;;;;4.17;2.33;;;;;;;;;;21124151;28;20212;-80
2022/03/31 18:09:16;;;;;;;4.00;2.77;;;;;;;;;;21071223;28;20219;-81
2022/03/31 18:19:17;;;;;;;4.00;3.00;;;;;;;;;;21127457;28;20219;-81
2022/03/31 18:39:42;;;;;;;5.23;2.87;;;;;;;;;;21141649;28;20231;-81
2022/03/31 18:49:48;;;;;;;4.13;3.00;;;;;;;;;;21158342;28;20300;-81
2022/03/31 18:59:50;;;;;;;5.83;3.17;;;;;;;;;;21134402;28;20255;-82
2022/03/31 19:09:52;;;;;;;5.33;3.40;;;;;;;;;;21134271;28;20223;-80
2022/03/31 19:19:54;;;;;;;4.93;3.10;;;;;;;;;;21110136;28;20208;-83
2022/03/31 19:30:17;;;;;;;3.57;2.07;;;;;;;;;;21106014;27;20231;-83
2022/03/31 19:40:45;;;;;;;5.00;2.93;;;;;;;;;;21157691;22;20243;-65
2022/03/31 19:50:48;;;;;;;3.30;2.10;;;;;;;;;;21117471;28;20215;-65
2022/03/31 20:00:50;;;;;;;4.47;2.83;;;;;;;;;;21118111;28;20284;-65
2022/03/31 20:10:54;;;;;;;3.80;2.60;;;;;;;;;;21067483;22;20254;-65
2022/03/31 20:20:56;;;;;;;4.23;2.60;;;;;;;;;;20993750;28;20220;-65
2022/03/31 20:30:58;;;;;;;3.63;2.43;;;;;;;;;;21009904;28;20741;-65
2022/03/31 20:40:59;;;;;;;3.73;1.93;;;;;;;;;;21033858;28;20212;-65
2022/03/31 20:51:01;;;;;;;3.17;1.97;;;;;;;;;;21056832;28;20278;-65
2022/03/31 21:01:03;;;;;;;2.90;1.80;;;;;;;;;;21042356;28;20208;-65
2022/03/31 21:11:05;;;;;;;5.27;1.67;;;;;;;;;;21034843;28;20211;-65
2022/03/31 21:21:07;;;;;;;3.83;2.23;;;;;;;;;;21018841;28;20591;-65
2022/03/31 21:31:10;;;;;;;3.97;2.47;;;;;;;;;;21016019;28;20582;-65
2022/03/31 21:41:12;;;;;;;4.17;2.80;;;;;;;;;;21009538;28;20234;-66
2022/03/31 21:51:16;;;;;;;4.30;2.77;;;;;;;;;;21017663;28;20228;-65
2022/03/31 22:01:18;;;;;;;3.67;2.37;;;;;;;;;;21017320;28;20208;-65
2022/03/31 22:11:38;;;;;;;3.10;2.17;;;8.00;99.90;;;;;;21019367;28;20212;-65
2022/03/31 22:21:42;;;;;;;3.87;2.43;;;6.60;99.90;;;;;;20943306;28;20745;-65
2022/03/31 22:31:45;;;;;;;3.77;2.57;;;8.00;99.90;;;;;;20966162;28;20649;-65
2022/03/31 22:41:47;;;;;;;4.47;2.90;;;;;;;;;;20966315;28;20626;-65
2022/03/31 22:51:49;;;;;;;3.30;2.57;;;;;;;;;;20949693;28;20217;-65
2022/03/31 23:01:52;;;;;;;3.30;2.10;;;;;;;;;;20964735;28;20213;-65
2022/03/31 23:11:54;;;;;;;2.77;2.23;;;;;;;;;;20947795;28;20282;-65
2022/03/31 23:21:56;;;;;;;3.63;2.20;;;;;;;;;;20946118;28;20286;-65
2022/03/31 23:31:57;;;;;;;3.50;2.23;;;;;;;;;;20945750;28;20229;-65
2022/03/31 23:41:59;;;;;;;3.53;2.20;;;;;;;;;;20945142;28;20209;-65
2022/03/31 23:52:01;;;;;;;3.83;2.20;;;;;;;;;;20962031;28;20213;-65
